Racecast

Lampasas Battlin' Badger XC Invitational

Lampasas High School · 4828m · Girls · 5-6A Varsity Girls · 2018-10-05 · TX

Course difficulty: +0.039

Race-day weather: 81°F · wind 35 mph · humidity 65%

View full meet →

Team scores

Place Team Points 12345 67
1 Cedar Park (TX) 28 1 2 4 9 12 15 27
2 Georgetown East View (TX) 71 3 8 11 23 26 48
3 Georgetown (TX) 91 10 18 19 20 24 25 34
4 Belton (TX) 101 14 16 21 22 28 29 30
5 Pflugerville Hendrickson (TX) 177 17 32 33 45 50
6 Weiss (TX) 211 13 37 51 53 57 81
7 Killeen Harker Heights (TX) 230 35 41 46 47 61 65 72
8 Bastrop Cedar Creek (TX) 233 31 40 49 54 59 66
9 Copperas Cove (TX) 242 6 42 56 68 70 75 78
10 Hutto (TX) 252 5 58 60 62 67 73 83
11 Waco (TX) 265 7 43 64 74 77 84
12 Temple (TX) 269 36 44 55 63 71 76 80
13 Leander Glenn (TX) 277 38 39 52 69 79
14 Austin Navarro (fka Lanier) (TX) 428 82 85 86 87 88 89

As scored by the meet.

Results

Rating scale ?
Place Athlete Grade School Time Rating Points
1 Gracie Hall 11 Cedar Park (TX) 1 19:06.3 129.3 1
2 Kaitlyn Childress 10 Cedar Park (TX) 2 19:10.9 PR 128.8 2
3 Mia Rowe 11 Georgetown East View (TX) 1 19:15.7 PR 128.3 3
4 Alena Albertson 12 Cedar Park (TX) 3 19:50.8 PR 124.5 4
5 Jordan Edwards 12 Hutto (TX) 1 19:54.1 PR 124.2 5
6 Madisen Honea 11 Copperas Cove (TX) 1 20:00.9 123.5 6
7 Anna Garner 11 Waco (TX) 1 20:02.4 123.3 7
8 Alexia Tapia 11 Georgetown East View (TX) 2 20:07 PR 122.9 8
9 Jacqueline Grimaldo 11 Manor (TX) 1 20:07.1 SR 122.9
10 Reese Barucky 9 Cedar Park (TX) 4 20:22.6 PR 121.3 9
11 Elizabeth Smythe 11 Georgetown (TX) 1 20:26.7 SR 120.9 10
12 Ashlyn Valadez 10 Georgetown East View (TX) 3 20:30.3 PR 120.6 11
13 Samantha Pettey 10 Cedar Park (TX) 5 20:32.3 120.4 12
14 Sophia Reyes 10 Weiss (TX) 1 20:33 PR 120.3 13
15 Sela Anderson 12 Belton (TX) 1 20:35.3 120.1 14
16 Juliana Lozano 9 Cedar Park (TX) 6 20:44.1 PR 119.3 15
17 Michaela Decker 11 Belton (TX) 2 20:48.1 118.9 16
18 Marianna Evans 9 Pflugerville Hendrickson (TX) 1 21:02.8 117.5 17
19 Joeli Benson 9 Georgetown (TX) 2 21:10.8 PR 116.8 18
20 Camryn Whitman 11 Georgetown (TX) 3 21:11.4 PR 116.7 19
21 Tonie Fenton 10 Georgetown (TX) 4 21:12 PR 116.7 20
22 Natlia Castillo 10 Pflugerville (TX) 1 21:15.5 PR 116.4
23 Shannon Cook 9 Belton (TX) 3 21:15.9 116.3 21
24 Abigail Cargile 10 Belton (TX) 4 21:16 116.3 22
25 Jessica Del Real 12 Georgetown East View (TX) 4 21:21.3 PR 115.9 23
26 Mallory Schacherl 9 Georgetown (TX) 5 21:34.8 PR 114.7 24
27 Madeline Stribling 11 Georgetown (TX) 6 21:35.9 PR 114.6 25
28 Anna Richison 10 Georgetown East View (TX) 5 21:36.3 PR 114.5 26
29 Hillary Behr 11 Cedar Park (TX) 7 21:37 PR 114.5 27
30 Nadia Meyer 12 Belton (TX) 5 21:40.2 114.2 28
31 Lexy Jernigan 12 Belton (TX) 6 21:42.4 114.0 29
32 Rachel Ramm 12 Belton (TX) 7 21:43.7 113.9 30
33 Brenda Campuzano 10 Bastrop Cedar Creek (TX) 1 21:46.7 PR 113.6 31
34 Miranda Viegra 10 Pflugerville Hendrickson (TX) 2 21:47.9 113.5 32
35 Jordan Jones 11 Belton (TX) 8 21:48.6 113.5
36 Katie Rzepniewski 10 Pflugerville Hendrickson (TX) 3 21:50.9 113.3 33
37 Melanie Lopez 9 Georgetown (TX) 7 21:55.2 PR 112.9 34
38 Grace Wallace 11 Killeen Harker Heights (TX) 1 21:56.8 112.8 35
39 Nadia Mireles 9 Temple (TX) 1 22:05.9 112.0 36
40 Jordyn Stringham 11 Weiss (TX) 2 22:13.2 PR 111.4 37
41 Adison McFall 12 Leander Glenn (TX) 1 22:14.1 SR 111.3 38
42 Destiny Raya 10 Leander Glenn (TX) 2 22:15 PR 111.3 39
43 Shelby Littlefield 10 Belton (TX) 9 22:19.4 110.9
44 Arieana Gracia 10 Bastrop Cedar Creek (TX) 2 22:20.1 110.8 40
45 Jacqui Spencer 9 Georgetown (TX) 8 22:26.5 PR 110.3
46 Tamara Mason 10 Killeen Harker Heights (TX) 2 22:27.7 110.2 41
47 Leah Wilcox 12 Cedar Park (TX) 8 22:31.5 109.9
48 Jalyn Ayala 10 Copperas Cove (TX) 2 22:32.2 109.9 42
49 Kaitlynn Melton 10 Pflugerville (TX) 2 22:32.5 109.8
50 Stephanie Espinosa 12 Waco (TX) 2 22:33.9 109.7 43
51 Gabby (Gabriela) Soto 10 Temple (TX) 2 22:38.6 109.3 44
52 Emily Romero 9 Pflugerville Hendrickson (TX) 4 22:55.2 108.0 45
53 Reese Wilson 9 Killeen Harker Heights (TX) 3 22:57.1 107.9 46
54 Anna Braun 11 Pflugerville (TX) 3 23:04.8 PR 107.3
55 Emily Blakeney 9 Killeen Harker Heights (TX) 4 23:15.3 106.5 47
56 Tiare McConnell 12 Georgetown East View (TX) 6 23:17.3 106.4 48
57 Matiana Cancino 10 Bastrop Cedar Creek (TX) 3 23:20.3 106.1 49
58 Ava Saad 9 Pflugerville Hendrickson (TX) 5 23:20.7 PR 106.1 50
59 Kirsten Albert 11 Weiss (TX) 3 23:23.1 PR 105.9 51
60 Jade Tullio 9 Leander Glenn (TX) 3 23:30.2 PR 105.4 52
61 Angelica Bernal 11 Weiss (TX) 4 23:30.4 105.4 53
62 Daniela Mora 9 Bastrop Cedar Creek (TX) 4 23:32.8 PR 105.2 54
63 Erika Garcia 12 Temple (TX) 3 23:32.9 105.2 55
64 Juyah Robinson 12 Copperas Cove (TX) 3 23:35.1 105.0 56
65 Gabby Vallejo 9 Weiss (TX) 5 23:36.4 PR 104.9 57
66 Lea Bullock 8 Hutto (TX) 2 23:38.6 PR 114.5 58
67 Belkin Vega-Molina 10 Bastrop Cedar Creek (TX) 5 23:38.8 104.8 59
68 Stephany Anaya 10 Hutto (TX) 3 23:43.9 SR 104.4 60
69 Breonna McCarthy-Reese 10 Killeen Harker Heights (TX) 5 23:47.7 104.1 61
70 Brianna Toloza 11 Hutto (TX) 4 23:49.2 104.1 62
71 Erin Jackson 10 Killeen Shoemaker (TX) 1 23:51.5 103.9
72 Mallory Dominguez 9 Temple (TX) 4 23:54.4 103.7 63
73 Riley Nemec 12 Georgetown (TX) 9 24:01.1 PR 103.2
74 Adrianna Rebolloso 9 Manor (TX) 2 24:07.5 PR 102.7
75 Isabella Riggs 10 Waco (TX) 3 24:14.6 102.2 64
76 Natalie Seib 11 Killeen Harker Heights (TX) 6 24:14.9 102.2 65
77 Alysalynn Moreno 9 Killeen Shoemaker (TX) 2 24:16.1 102.1
78 Vanessa Jimenez 9 Bastrop Cedar Creek (TX) 6 24:20.3 101.8 66
79 Mia Rafanen 10 Hutto (TX) 5 24:22.7 PR 101.7 67
80 Emily Armstrong 10 Copperas Cove (TX) 4 24:24.7 101.5 68
81 Melanie Chavez 11 Leander Glenn (TX) 4 24:25.1 101.5 69
82 Participant Unknown 9 Pflugerville (TX) 4 24:46.8 PR 100.0
83 Micah Sedillo 10 Copperas Cove (TX) 5 24:47.4 SR 100.0 70
84 Lavina Brown 10 Temple (TX) 5 24:49.2 99.9 71
85 Macy Singleton 9 Cedar Park (TX) 9 24:55.5
86 Allison Sistrunk 9 Killeen Harker Heights (TX) 7 25:02.3 99.0 72
87 Jessica Cluck 11 Hutto (TX) 6 25:05.8 98.8 73
88 Evelyn Keating 10 Killeen (TX) 1 25:07.4 98.7
89 Yareth Vences 10 Waco (TX) 4 25:13.4 98.3 74
90 Tristan Carel 10 Copperas Cove (TX) 6 25:14.2 98.2 75
91 Zacaria Hopkins 10 Killeen (TX) 2 25:14.9 98.2
92 Amya McNiel 11 Temple (TX) 6 25:18 PR 98.0 76
93 Lily Escobedo 11 Waco (TX) 5 25:20.3 97.8 77
94 Brooke Woodward 10 Killeen (TX) 3 25:27.1 PR 97.4
95 Angelie Vera 10 Manor (TX) 3 25:28.3 PR 97.3
96 Destini Spruill 10 Copperas Cove (TX) 7 25:30.5 97.2 78
97 Analy Preciado 11 Leander Glenn (TX) 5 25:32.4 97.1 79
98 Naomi Ball 9 Temple (TX) 7 25:34.4 96.9 80
99 Blanca Riojas 11 Manor (TX) 4 25:41.9 PR 96.4
100 Danielle Diaz 12 Copperas Cove (TX) 8 25:43.6 96.3
101 Mackenzie Ayers 11 Weiss (TX) 6 25:46 PR 96.2 81
102 Elisabeth Barrientos 9 Austin Navarro (fka Lanier) (TX) 1 25:56.1 PR 95.6 82
103 Megan Moccia 9 Hutto (TX) 7 25:59.5 95.4 83
104 Ashly Lopez 10 Hutto (TX) 8 26:07 PR 95.0
105 Mikayla Devins 12 Copperas Cove (TX) 9 26:30.8 93.6
106 Julissa Villa 11 Waco (TX) 6 27:09.5 91.4 84
107 Crystal McDonald 11 Killeen Shoemaker (TX) 3 27:58.4 88.7
108 Stephanie Vazquez 10 Austin Navarro (fka Lanier) (TX) 2 28:16.6 PR 87.8 85
109 Miriam Cruz 12 Austin Navarro (fka Lanier) (TX) 3 28:32.3 87.0 86
110 Janie Nieto 11 Austin Navarro (fka Lanier) (TX) 4 30:29.8 81.4 87
111 Fabiola Barbosa 12 Austin Navarro (fka Lanier) (TX) 5 30:40.9 PR 81.0 88
112 Tiana Lucas 11 Hutto (TX) 9 30:49
113 Gallana Martin 11 Hutto (TX) 10 30:49.4
114 Jennifer Aguilar 12 Austin Navarro (fka Lanier) (TX) 6 33:11.8 74.9 89
Something wrong on this page? Report it →